Jeppesen Maersk — OWTW2 — position and weather

sailwx.info

Track history (hours):
 
Tides and Currents Weather Stations Pressure Air Temp Water Temp Dewpoint Dewpoint Depression Visibility Wind Speed Wind Dir Waves Ship Positions

Jeppesen Maersk

Last reported at 2015-May-20 08:29 UTC. Time now 2015-May-30 14:34 UTC.
Position S 36°09' E 174°59'.
Warning: this ship's position is 10 days out of date.

Type: Ship (hazmat cat A). MMSI: 219953000.

Date/timePositionNaut miles runAvg speedWind from/ knotsBaromVisibWave heightAir tempDewpointWater temp
2015-May-20 08:29S 36°09' E 174°59'1617.6
2015-May-20 07:33S 36°26' E 174°60'1616.1
2015-May-20 06:33S 36°41' E 174°53'10 9.9
2015-May-20 05:34S 36°50' E 174°49'1 1.4
2015-May-20 04:33S 36°51' E 174°47'0 0.0
2015-May-20 03:27S 36°51' E 174°47'0 0.0
2015-May-20 02:31S 36°51' E 174°47'0 0.0
2015-May-20 01:33S 36°51' E 174°47'0 0.0
2015-May-20 00:33S 36°51' E 174°47'0 0.0
2015-May-19 23:33S 36°51' E 174°47'0 0.0
2015-May-19 22:31S 36°51' E 174°47'0 0.0
2015-May-19 21:33S 36°51' E 174°47'0 0.0
2015-May-19 20:33S 36°51' E 174°47'0 0.0
2015-May-19 19:33S 36°51' E 174°47'0 0.0
2015-May-19 18:33S 36°51' E 174°47'2 1.5
2015-May-19 17:33S 36°50' E 174°49'9 8.5
2015-May-19 16:34S 36°42' E 174°52'1514.7
2015-May-19 15:33S 36°32' E 175°06'1514.7
2015-May-19 14:34S 36°24' E 175°21'2115.0
2015-May-19 13:09S 36°30' E 175°47'191 4.4
2015-May-17 18:00S 39°30' E 177°06'   310 / 101018.827.0 11.0 8.1
2015-May-14 06:00S 43°06' E 173°42'   060 / 10996.210.8 13.3 9.0
Track history (hours):
 
Tides and Currents Weather Stations Pressure Air Temp Water Temp Dewpoint Dewpoint Depression Visibility Wind Speed Wind Dir Waves Ship Positions

Jeppesen Maersk

Last reported at 2015-May-20 08:29 UTC. Time now 2015-May-30 14:34 UTC.
Position S 36°09' E 174°59'.
Warning: this ship's position is 10 days out of date.

Type: Ship (hazmat cat A). MMSI: 219953000.

Date/timePositionNaut miles runAvg speedWind from/ knotsBaromVisibWave heightAir tempDewpointWater temp
2015-May-20 08:29S 36°09' E 174°59'1617.6
2015-May-20 07:33S 36°26' E 174°60'1616.1
2015-May-20 06:33S 36°41' E 174°53'10 9.9
2015-May-20 05:34S 36°50' E 174°49'1 1.4
2015-May-20 04:33S 36°51' E 174°47'0 0.0
2015-May-20 03:27S 36°51' E 174°47'0 0.0
2015-May-20 02:31S 36°51' E 174°47'0 0.0
2015-May-20 01:33S 36°51' E 174°47'0 0.0
2015-May-20 00:33S 36°51' E 174°47'0 0.0
2015-May-19 23:33S 36°51' E 174°47'0 0.0
2015-May-19 22:31S 36°51' E 174°47'0 0.0
2015-May-19 21:33S 36°51' E 174°47'0 0.0
2015-May-19 20:33S 36°51' E 174°47'0 0.0
2015-May-19 19:33S 36°51' E 174°47'0 0.0
2015-May-19 18:33S 36°51' E 174°47'2 1.5
2015-May-19 17:33S 36°50' E 174°49'9 8.5
2015-May-19 16:34S 36°42' E 174°52'1514.7
2015-May-19 15:33S 36°32' E 175°06'1514.7
2015-May-19 14:34S 36°24' E 175°21'2115.0
2015-May-19 13:09S 36°30' E 175°47'191 4.4
2015-May-17 18:00S 39°30' E 177°06'   310 / 101018.827.0 11.0 8.1
2015-May-14 06:00S 43°06' E 173°42'   060 / 10996.210.8 13.3 9.0

Dump ship's entire track history